Terminal Aerodrome Forecast
Issued by NWS

Home | Current Version | Previous Version | Graphics & Text | Print | Product List | Glossary Off
Versions: 1 2 3 4 5 6 7 8 9 10 11 12 13 14 15 16 17 18

672
FTUS43 KBIS 231139
TAFJMS
TAF
KJMS 231139Z 2312/2412 30021G30KT P6SM VCSH SCT020 BKN035
      TEMPO 2312/2316 BKN025
     FM231600 32025G34KT P6SM BKN045
     FM232200 32024G34KT P6SM BKN060
     FM240200 33018G28KT P6SM SKC=

USA.gov is the U.S. government's official web portal to all federal, state and local government web resources and services.